Time;durP1;ratioP1;P1;durP2;ratioP2;P2;SDS_P1;SDS_P2;PMS_P1;PMS_P2;Temp;Humidity;BMP_temperature;BMP_pressure;BME280_temperature;BME280_humidity;BME280_pressure;Samples;Min_cycle;Max_cycle;Signal;HPM_P1;HPM_P2
2022/04/17 00:00:15;;;;;;;4.23;3.40;;;;;;;6.19;57.82;100574.41;6099942;23;20175;-75
2022/04/17 00:02:43;;;;;;;5.23;3.33;;;;;;;6.18;57.62;100577.25;6125586;23;20187;-75
2022/04/17 00:05:10;;;;;;;3.90;3.53;;;;;;;6.15;57.51;100580.25;6125640;23;20168;-74
2022/04/17 00:07:37;;;;;;;3.50;3.20;;;;;;;6.09;57.79;100579.09;6125414;23;20493;-74
2022/04/17 00:10:05;;;;;;;4.30;3.13;;;;;;;6.04;57.95;100568.13;6125464;23;20175;-74
2022/04/17 00:12:31;;;;;;;3.63;3.30;;;;;;;5.96;58.49;100568.13;6125413;23;20168;-74
2022/04/17 00:15:00;;;;;;;3.47;3.17;;;;;;;5.97;58.11;100564.44;6125146;23;20183;-76
2022/04/17 00:17:26;;;;;;;4.20;3.30;;;;;;;5.96;58.26;100568.13;6125781;23;20180;-74
2022/04/17 00:19:53;;;;;;;3.40;3.10;;;;;;;5.86;58.12;100572.75;6125264;23;20187;-74
2022/04/17 00:22:20;;;;;;;3.63;3.20;;;;;;;5.78;58.64;100572.75;6125276;23;20692;-75
2022/04/17 00:24:46;;;;;;;3.60;3.30;;;;;;;5.78;59.38;100569.25;6099747;23;20164;-74
2022/04/17 00:27:13;;;;;;;3.77;3.47;;;;;;;5.60;59.40;100566.75;6125521;23;20175;-74
2022/04/17 00:29:41;;;;;;;3.90;3.50;;;;;;;5.61;59.23;100568.41;6125201;23;20167;-74
2022/04/17 00:32:08;;;;;;;4.00;3.60;;;;;;;5.48;60.20;100568.91;6125139;23;20246;-75
2022/04/17 00:34:37;;;;;;;4.00;3.20;;;;;;;5.57;59.93;100562.59;6125810;23;20176;-74
2022/04/17 00:37:04;;;;;;;3.67;3.37;;;;;;;5.42;60.49;100558.06;6124891;23;20172;-76
2022/04/17 00:39:31;;;;;;;3.77;3.47;;;;;;;5.44;60.03;100559.59;6099856;23;20551;-75
2022/04/17 00:42:00;;;;;;;3.70;3.33;;;;;;;5.29;60.77;100555.91;6125083;23;20275;-76
2022/04/17 00:44:27;;;;;;;3.57;3.23;;;;;;;5.36;60.79;100558.75;6125122;23;20263;-75
2022/04/17 00:46:54;;;;;;;3.63;3.23;;;;;;;5.29;60.96;100553.25;6125340;23;20194;-76
2022/04/17 00:49:21;;;;;;;3.43;3.13;;;;;;;5.15;61.76;100559.19;6125229;23;20234;-75
2022/04/17 00:51:47;;;;;;;4.47;4.07;;;;;;;5.03;62.67;100542.72;6125136;23;20259;-75
2022/04/17 00:54:15;;;;;;;6.37;3.60;;;;;;;5.01;62.87;100552.69;6125058;23;20159;-75
2022/04/17 00:56:41;;;;;;;5.13;4.10;;;;;;;4.96;62.97;100554.16;6125194;23;20166;-76
2022/04/17 00:59:11;;;;;;;3.77;3.43;;;;;;;4.83;63.64;100550.13;6124916;23;20171;-75
2022/04/17 01:01:38;;;;;;;3.67;3.30;;;;;;;4.84;63.79;100557.13;6124833;23;20225;-75
2022/04/17 01:04:06;;;;;;;4.43;3.87;;;;;;;4.79;64.16;100558.56;6124685;23;20565;-75
2022/04/17 01:06:33;;;;;;;4.63;3.60;;;;;;;4.70;64.82;100555.06;6125341;23;20226;-75
2022/04/17 01:09:00;;;;;;;3.90;3.50;;;;;;;4.65;65.32;100560.00;6124713;23;20497;-75
2022/04/17 01:11:27;;;;;;;4.63;3.30;;;;;;;4.62;65.12;100552.34;6125241;23;20167;-75
2022/04/17 01:13:54;;;;;;;4.27;3.80;;;;;;;4.56;65.89;100552.16;6125180;23;20194;-78
2022/04/17 01:16:23;;;;;;;5.43;3.70;;;;;;;4.62;65.78;100554.19;6124851;23;20198;-76
2022/04/17 01:18:55;;;;;;;4.10;3.70;;;;;;;4.70;65.28;100552.41;6124991;23;20176;-75
2022/04/17 01:21:25;;;;;;;4.47;3.60;;;;;;;4.67;65.29;100549.22;6124477;23;20197;-76
2022/04/17 01:26:56;;;;;;;4.50;3.83;;;;;;;4.62;65.15;100547.03;6125480;23;20472;-72
2022/04/17 01:29:34;;;;;;;3.63;3.23;;;;;;;4.63;65.05;100543.41;6124606;23;20159;-72
2022/04/17 01:32:03;;;;;;;4.97;3.50;;;;;;;4.67;64.28;100543.91;6124877;23;20159;-73
2022/04/17 01:34:30;;;;;;;7.43;3.80;;;;;;;4.54;64.90;100538.22;6125180;23;20163;-72
2022/04/17 01:36:58;;;;;;;4.20;3.33;;;;;;;4.49;65.44;100548.47;6124409;23;20271;-72
2022/04/17 01:39:25;;;;;;;6.63;3.43;;;;;;;4.48;65.00;100547.63;6124839;23;20159;-73
2022/04/17 01:41:52;;;;;;;4.27;3.40;;;;;;;4.54;64.20;100547.00;6124781;23;20637;-72
2022/04/17 01:44:19;;;;;;;3.87;3.20;;;;;;;4.49;64.62;100538.69;6124637;23;20170;-73
2022/04/17 01:46:46;;;;;;;6.40;3.77;;;;;;;4.46;64.56;100536.38;6124773;23;20163;-73
2022/04/17 01:49:15;;;;;;;3.70;3.20;;;;;;;4.26;65.08;100532.25;6124545;23;20234;-73
2022/04/17 01:51:43;;;;;;;3.60;3.30;;;;;;;4.34;65.15;100537.59;6124821;23;20168;-73
2022/04/17 01:54:11;;;;;;;4.10;3.70;;;;;;;4.35;64.39;100526.00;6099308;23;20175;-72
2022/04/17 01:56:39;;;;;;;4.27;3.43;;;;;;;4.18;65.35;100517.16;6124849;23;20178;-72
2022/04/17 01:59:07;;;;;;;4.37;3.47;;;;;;;4.18;66.15;100527.75;6124944;23;20175;-72
2022/04/17 02:01:38;;;;;;;4.43;3.80;;;;;;;4.18;65.51;100521.63;6099080;23;20187;-72
2022/04/17 02:04:06;;;;;;;5.47;3.77;;;;;;;4.20;65.54;100522.31;6125162;23;20586;-72
2022/04/17 02:06:34;;;;;;;4.43;3.20;;;;;;;4.10;66.13;100524.22;6124683;23;20190;-73
2022/04/17 02:09:01;;;;;;;3.90;3.37;;;;;;;4.04;66.33;100515.06;6124814;23;20258;-73
2022/04/17 02:11:28;;;;;;;6.63;3.83;;;;;;;3.88;67.27;100507.81;6124587;23;20183;-72
2022/04/17 02:13:57;;;;;;;5.70;3.87;;;;;;;3.99;67.08;100506.75;6124963;23;20222;-72
2022/04/17 02:16:24;;;;;;;3.73;3.37;;;;;;;3.92;67.70;100514.47;6124317;23;20183;-73
2022/04/17 02:18:52;;;;;;;3.67;3.37;;;;;;;3.98;66.96;100505.91;6124984;23;20175;-73
2022/04/17 02:21:20;;;;;;;4.30;3.60;;;;;;;3.66;68.87;100505.69;6124239;23;20266;-72
2022/04/17 02:23:47;;;;;;;3.40;3.10;;;;;;;3.79;67.82;100506.09;6124969;23;20195;-74
2022/04/17 02:26:16;;;;;;;4.63;3.47;;;;;;;3.72;68.54;100506.88;6124334;23;20174;-75
2022/04/17 02:28:43;;;;;;;4.80;3.60;;;;;;;3.73;68.89;100516.50;6124501;23;20191;-74
2022/04/17 02:31:11;;;;;;;3.90;3.50;;;;;;;3.61;69.51;100507.13;6124321;23;20641;-74
2022/04/17 02:33:38;;;;;;;4.20;3.80;;;;;;;3.58;69.89;100499.50;6124831;23;20198;-74
2022/04/17 02:36:06;;;;;;;4.03;3.63;;;;;;;3.64;69.36;100493.59;6124523;23;20160;-74
2022/04/17 02:38:33;;;;;;;4.90;4.00;;;;;;;3.67;69.24;100490.63;6126712;23;20168;-74
2022/04/17 02:41:00;;;;;;;5.80;3.90;;;;;;;3.71;68.28;100486.66;6126387;23;20258;-74
2022/04/17 02:43:26;;;;;;;5.77;3.83;;;;;;;3.69;68.66;100493.94;6126423;23;20258;-75
2022/04/17 02:45:53;;;;;;;6.40;3.67;;;;;;;3.70;68.29;100490.28;6126539;23;20242;-75
2022/04/17 02:48:20;;;;;;;4.23;3.83;;;;;;;3.72;68.26;100488.34;6126205;23;20187;-74
2022/04/17 02:50:48;;;;;;;4.17;3.77;;;;;;;3.64;68.77;100489.09;6126710;23;20567;-75
2022/04/17 02:53:15;;;;;;;5.83;3.90;;;;;;;3.67;69.27;100485.31;6126464;23;20164;-73
2022/04/17 02:55:43;;;;;;;3.40;3.10;;;;;;;3.69;68.79;100481.50;6126472;23;20168;-73
2022/04/17 02:58:10;;;;;;;4.83;3.47;;;;;;;3.69;68.70;100481.50;6126042;23;20183;-72
2022/04/17 03:06:10;;;;;;;5.17;3.57;;;;;;;3.64;68.58;100483.78;6126148;23;20170;-73
2022/04/17 03:08:41;;;;;;;5.33;3.50;;;;;;;3.53;69.13;100482.25;6126154;23;20194;-73
2022/04/17 03:11:09;;;;;;;4.30;3.50;;;;;;;3.61;68.88;100481.47;6126165;23;20187;-73
2022/04/17 03:13:36;;;;;;;4.23;3.27;;;;;;;3.44;69.96;100485.81;6126004;23;20160;-74
2022/04/17 03:16:03;;;;;;;4.90;3.60;;;;;;;3.43;69.75;100488.59;6125878;23;20171;-74
2022/04/17 03:18:30;;;;;;;3.60;3.30;;;;;;;3.51;69.45;100486.00;6126201;23;20573;-74
2022/04/17 03:20:58;;;;;;;4.00;3.60;;;;;;;3.43;70.28;100473.53;6125492;23;20295;-74
2022/04/17 03:23:25;;;;;;;4.47;3.40;;;;;;;3.35;71.36;100480.59;6125923;23;20187;-75
2022/04/17 03:25:52;;;;;;;4.07;3.50;;;;;;;3.31;71.23;100476.59;6126263;23;20176;-75
2022/04/17 03:28:19;;;;;;;3.53;3.20;;;;;;;3.20;71.96;100467.06;6125733;23;20199;-75
2022/04/17 03:30:46;;;;;;;3.87;3.33;;;;;;;3.36;71.73;100472.47;6125862;23;20171;-75
2022/04/17 03:33:12;;;;;;;5.43;3.80;;;;;;;3.31;72.16;100466.00;6125814;23;20247;-75
2022/04/17 03:35:40;;;;;;;4.17;3.70;;;;;;;3.28;72.05;100463.63;6126193;23;20268;-75
2022/04/17 03:38:07;;;;;;;3.87;3.47;;;;;;;3.36;71.47;100469.03;6126156;23;20168;-75
2022/04/17 03:40:34;;;;;;;4.17;3.77;;;;;;;3.33;71.79;100469.31;6126396;23;20501;-75
2022/04/17 03:43:01;;;;;;;4.33;3.57;;;;;;;3.31;71.96;100473.94;6126297;23;20291;-75
2022/04/17 03:45:27;;;;;;;4.60;3.83;;;;;;;3.40;71.56;100471.22;6125713;23;20236;-75
2022/04/17 03:47:54;;;;;;;4.50;4.10;;;;;;;3.39;71.15;100477.50;6125805;23;20206;-75
2022/04/17 03:50:21;;;;;;;4.27;3.60;;;;;;;3.30;71.92;100481.06;6125878;23;20504;-75
2022/04/17 03:52:48;;;;;;;4.70;3.67;;;;;;;3.20;72.59;100482.09;6125858;23;20168;-75
2022/04/17 03:55:15;;;;;;;4.43;3.50;;;;;;;3.13;73.56;100494.31;6125729;23;20188;-75
2022/04/17 03:57:42;;;;;;;3.77;3.40;;;;;;;3.03;74.19;100481.13;6125971;23;20167;-74
2022/04/17 04:00:11;;;;;;;4.70;3.50;;;;;;;3.08;74.23;100486.78;6125840;23;20156;-75
2022/04/17 04:02:39;;;;;;;4.43;3.50;;;;;;;3.12;73.47;100484.69;6125750;23;20192;-75
2022/04/17 04:05:08;;;;;;;5.73;3.90;;;;;;;3.07;74.10;100480.69;6125246;23;20176;-76
2022/04/17 04:07:35;;;;;;;4.20;3.33;;;;;;;3.14;74.22;100478.25;6126214;23;20195;-75
2022/04/17 04:10:03;;;;;;;6.00;3.80;;;;;;;3.16;74.16;100470.16;6125573;23;20632;-75
2022/04/17 04:12:31;;;;;;;5.30;3.80;;;;;;;3.13;74.47;100476.56;6125611;23;20251;-75
2022/04/17 04:14:57;;;;;;;4.40;3.77;;;;;;;3.18;74.16;100484.91;6125606;23;20242;-75
2022/04/17 04:17:24;;;;;;;4.47;3.60;;;;;;;3.32;73.51;100478.22;6125483;23;20160;-75
2022/04/17 04:19:51;;;;;;;5.90;4.07;;;;;;;3.11;74.33;100478.56;6125272;23;20270;-75
2022/04/17 04:22:18;;;;;;;4.00;3.60;;;;;;;3.15;74.65;100479.91;6125523;23;20239;-75
2022/04/17 04:24:45;;;;;;;4.40;3.70;;;;;;;3.22;73.67;100483.59;6125630;23;20165;-75
2022/04/17 04:29:57;;;;;;;4.20;3.63;;;;;;;3.25;74.32;100485.13;6125768;23;20499;-75
2022/04/17 04:32:24;;;;;;;5.47;3.87;;;;;;;3.21;75.02;100479.31;6125333;23;20251;-75
2022/04/17 04:34:51;;;;;;;5.00;3.70;;;;;;;3.20;75.58;100480.28;6125177;23;20621;-75
2022/04/17 04:37:18;;;;;;;4.23;3.83;;;;;;;3.23;75.98;100487.94;6125427;23;20495;-75
2022/04/17 04:39:45;;;;;;;5.53;4.30;;;;;;;3.28;75.71;100476.88;6125593;23;20216;-75
2022/04/17 04:42:12;;;;;;;4.33;3.83;;;;;;;3.44;74.02;100471.72;6124976;23;20167;-75
2022/04/17 04:44:39;;;;;;;4.60;4.07;;;;;;;3.44;74.25;100477.03;6125384;23;20259;-75
2022/04/17 04:47:05;;;;;;;4.77;4.27;;;;;;;3.55;73.89;100471.47;6125121;23;20164;-75
2022/04/17 04:49:32;;;;;;;4.83;3.80;;;;;;;3.58;73.61;100483.59;6125197;23;20725;-75
2022/04/17 04:52:01;;;;;;;4.00;3.60;;;;;;;3.66;72.53;100478.34;6125720;23;20190;-75
2022/04/17 04:54:28;;;;;;;5.23;3.80;;;;;;;3.81;71.88;100476.81;6099577;23;20167;-75
2022/04/17 04:56:57;;;;;;;4.07;3.67;;;;;;;3.90;70.87;100483.81;6125753;23;20578;-75
2022/04/17 04:59:24;;;;;;;4.10;3.70;;;;;;;4.05;70.05;100484.09;6124776;23;20195;-74
2022/04/17 05:01:51;;;;;;;4.50;3.57;;;;;;;4.05;70.51;100479.63;6099520;23;20184;-76
2022/04/17 05:04:20;;;;;;;4.30;3.37;;;;;;;4.23;69.35;100488.31;6100024;23;20195;-75
2022/04/17 05:06:47;;;;;;;4.70;3.97;;;;;;;4.29;69.06;100487.69;6125296;23;20554;-76
2022/04/17 05:09:13;;;;;;;4.10;3.70;;;;;;;4.41;68.65;100494.38;6124989;23;20168;-76
2022/04/17 05:11:40;;;;;;;4.50;3.90;;;;;;;4.46;69.00;100495.72;6125114;23;20267;-75
2022/04/17 05:14:09;;;;;;;4.90;3.67;;;;;;;4.58;67.45;100497.91;6125049;23;20542;-75
2022/04/17 05:16:36;;;;;;;5.97;3.50;;;;;;;4.66;67.59;100494.50;6125541;23;20561;-75
2022/04/17 05:19:24;;;;;;;3.97;3.47;;;;;;;4.73;65.73;100493.69;6099578;23;20621;-75
2022/04/17 05:21:57;;;;;;;4.47;3.67;;;;;;;4.85;65.84;100491.56;6125190;23;20171;-76
2022/04/17 05:24:24;;;;;;;5.07;3.70;;;;;;;5.00;64.88;100497.88;6125039;23;20172;-75
2022/04/17 05:26:52;;;;;;;4.13;3.60;;;;;;;5.01;64.67;100501.38;6125185;23;20164;-75
2022/04/17 05:29:19;;;;;;;3.83;3.43;;;;;;;5.11;64.53;100502.06;6124914;23;20168;-76
2022/04/17 05:31:47;;;;;;;4.40;3.50;;;;;;;5.22;64.02;100507.91;6125092;23;20676;-75
2022/04/17 05:34:15;;;;;;;5.13;3.83;;;;;;;5.34;64.32;100497.78;6124933;23;20175;-76
2022/04/17 05:36:42;;;;;;;5.80;3.93;;;;;;;5.50;62.16;100499.63;6124947;23;20160;-75
2022/04/17 05:39:09;;;;;;;5.43;4.03;;;;;;;5.55;62.66;100499.97;6125046;23;20219;-75
2022/04/17 05:41:37;;;;;;;4.13;3.57;;;;;;;5.61;62.87;100509.91;6124816;23;20243;-75
2022/04/17 05:44:04;;;;;;;4.17;3.60;;;;;;;5.81;61.41;100503.28;6099285;23;20222;-75
2022/04/17 05:46:35;;;;;;;4.23;3.73;;;;;;;5.61;62.51;100505.44;6124828;23;20164;-76
2022/04/17 05:49:06;;;;;;;4.97;3.43;;;;;;;5.59;62.46;100501.28;6124976;23;20182;-75
2022/04/17 05:51:36;;;;;;;4.00;3.60;;;;;;;5.78;61.81;100502.78;6124578;23;20171;-75
2022/04/17 05:54:07;;;;;;;4.63;4.10;;;;;;;5.85;62.40;100501.09;6124935;23;20606;-75
2022/04/17 05:56:37;;;;;;;5.33;4.10;;;;;;;5.92;62.49;100500.31;6125322;23;20191;-75
2022/04/17 05:59:06;;;;;;;4.07;3.77;;;;;;;6.13;61.58;100500.59;6100065;23;20179;-75
2022/04/17 06:01:32;;;;;;;4.20;3.50;;;;;;;6.25;60.00;100497.56;6124992;23;20168;-76
2022/04/17 06:04:02;;;;;;;4.70;4.00;;;;;;;6.32;60.88;100498.53;6099240;23;20184;-75
2022/04/17 06:06:28;;;;;;;4.87;3.70;;;;;;;6.40;61.64;100504.66;6124302;23;20171;-75
2022/04/17 06:08:55;;;;;;;5.40;3.70;;;;;;;6.50;58.34;100499.13;6125135;23;20247;-75
2022/04/17 06:11:21;;;;;;;5.27;3.73;;;;;;;6.46;60.28;100504.00;6125886;23;20243;-76
2022/04/17 06:13:48;;;;;;;3.83;3.33;;;;;;;6.59;59.01;100503.44;6126929;23;20203;-75
2022/04/17 06:16:15;;;;;;;3.70;3.40;;;;;;;6.71;57.97;100499.41;6126814;23;20701;-76
2022/04/17 06:18:42;;;;;;;5.30;4.20;;;;;;;6.79;57.83;100501.19;6126973;23;20159;-75
2022/04/17 06:21:11;;;;;;;5.13;3.80;;;;;;;6.89;57.49;100501.81;6127157;23;20262;-75
2022/04/17 06:23:38;;;;;;;5.13;4.17;;;;;;;6.82;57.66;100493.66;6126628;23;20520;-75
2022/04/17 06:26:06;;;;;;;4.23;3.57;;;;;;;6.60;58.05;100502.44;6126916;23;20159;-75
2022/04/17 06:28:33;;;;;;;4.23;3.70;;;;;;;6.90;57.25;100492.81;6127061;23;20195;-75
2022/04/17 06:30:59;;;;;;;3.70;3.40;;;;;;;7.01;56.81;100492.41;6127063;23;20243;-76
2022/04/17 06:33:27;;;;;;;4.37;3.97;;;;;;;7.07;56.49;100491.72;6127221;23;20489;-76
2022/04/17 06:35:53;;;;;;;4.80;3.73;;;;;;;7.15;56.15;100499.63;6127064;23;20671;-76
2022/04/17 06:38:20;;;;;;;4.13;3.77;;;;;;;7.22;55.57;100487.28;6126967;23;20242;-76
2022/04/17 06:40:47;;;;;;;4.77;3.90;;;;;;;7.26;55.90;100491.25;6127152;23;20505;-76
2022/04/17 06:43:13;;;;;;;4.10;3.43;;;;;;;7.39;56.92;100487.97;6126962;23;20188;-78
2022/04/17 06:45:41;;;;;;;4.40;3.70;;;;;;;7.56;56.79;100489.50;6127009;23;20164;-77
2022/04/17 06:48:15;;;;;;;3.87;3.47;;;;;;;7.79;55.05;100484.97;6126829;23;20737;-77
2022/04/17 06:50:46;;;;;;;4.03;3.37;;;;;;;7.73;54.96;100483.03;6100165;23;20163;-77
2022/04/17 06:53:14;;;;;;;4.17;3.77;;;;;;;7.78;53.12;100482.50;6126141;23;20226;-77
2022/04/17 06:55:40;;;;;;;4.33;3.60;;;;;;;7.85;52.36;100478.91;6124309;23;20163;-77
2022/04/17 06:58:08;;;;;;;4.43;3.83;;;;;;;7.91;52.47;100474.69;6126722;23;20608;-77
2022/04/17 07:00:35;;;;;;;4.00;3.60;;;;;;;8.08;51.20;100478.00;6126863;23;20187;-77
2022/04/17 07:03:02;;;;;;;4.53;3.40;;;;;;;8.07;50.19;100493.19;6126744;23;20248;-76
2022/04/17 07:05:29;;;;;;;4.40;3.27;;;;;;;8.09;50.71;100482.34;6126206;23;20173;-78
2022/04/17 07:08:04;;;;;;;3.87;3.40;;;;;;;8.03;53.11;100485.75;6126987;23;20625;-78
2022/04/17 07:10:33;;;;;;;4.23;3.50;;;;;;;8.24;52.01;100486.69;6126417;23;20243;-77
2022/04/17 07:13:00;;;;;;;3.87;3.40;;;;;;;8.34;51.59;100476.59;6101127;23;20579;-77
2022/04/17 07:15:26;;;;;;;4.23;3.40;;;;;;;8.36;52.09;100487.91;6126329;23;20551;-77
2022/04/17 07:17:54;;;;;;;4.63;3.30;;;;;;;8.44;51.83;100483.50;6126718;23;20195;-77
2022/04/17 07:20:21;;;;;;;3.93;3.20;;;;;;;8.40;50.84;100475.00;6126361;23;20192;-78
2022/04/17 07:22:49;;;;;;;4.37;3.70;;;;;;;8.55;52.59;100486.53;6099673;23;20163;-78
2022/04/17 07:25:19;;;;;;;6.20;3.83;;;;;;;8.52;51.01;100472.72;6125733;23;20218;-77
2022/04/17 07:27:47;;;;;;;4.73;3.47;;;;;;;8.58;51.34;100486.19;6126488;23;20242;-76
2022/04/17 07:30:16;;;;;;;4.00;3.47;;;;;;;8.46;50.07;100473.44;6102050;23;20168;-76
2022/04/17 07:32:44;;;;;;;6.73;4.03;;;;;;;8.51;49.58;100476.41;6125128;23;20640;-74
2022/04/17 07:35:12;;;;;;;4.37;3.27;;;;;;;8.65;50.28;100478.22;6126028;23;20174;-75
2022/04/17 07:37:38;;;;;;;4.03;2.97;;;;;;;8.55;48.83;100478.50;6126164;23;20165;-76
2022/04/17 07:40:17;;;;;;;3.77;2.47;;;;;;;8.79;47.71;100472.03;6126119;23;20170;-75
2022/04/17 07:42:45;;;;;;;3.03;2.30;;;;;;;8.55;48.22;100467.00;6126280;23;20256;-75
2022/04/17 07:45:21;;;;;;;3.77;2.93;;;;;;;8.56;46.82;100472.16;6125604;23;20418;-79
2022/04/17 07:47:52;;;;;;;4.23;2.67;;;;;;;8.55;48.66;100469.66;6078198;23;20187;-78
2022/04/17 07:50:26;;;;;;;3.53;2.83;;;;;;;8.66;49.08;100462.03;6131314;23;20143;-78
2022/04/17 07:52:53;;;;;;;4.13;3.40;;;;;;;8.62;49.78;100455.41;6128661;23;20171;-80
2022/04/17 07:55:21;;;;;;;3.43;2.60;;;;;;;8.71;49.27;100464.13;6131594;23;20234;-77
2022/04/17 08:00:45;;;;;;;3.53;2.40;;;;;;;8.95;48.99;100462.97;6129378;23;20186;-76
2022/04/17 08:03:20;;;;;;;4.13;2.13;;;;;;;8.82;47.97;100453.78;6126861;23;20159;-76
2022/04/17 08:05:51;;;;;;;2.77;2.33;;;;;;;8.49;48.42;100451.75;6102100;23;20152;-76
2022/04/17 08:08:18;;;;;;;3.10;2.27;;;;;;;8.66;47.93;100459.34;6101297;23;20199;-76
2022/04/17 08:10:46;;;;;;;3.10;2.17;;;;;;;8.90;47.51;100465.38;6125498;23;20170;-76
2022/04/17 08:13:12;;;;;;;5.43;2.50;;;;;;;8.93;47.05;100454.31;6125444;23;20167;-75
2022/04/17 08:15:39;;;;;;;4.23;2.60;;;;;;;9.14;48.29;100438.28;6125573;23;20562;-78
2022/04/17 08:18:06;;;;;;;3.47;2.30;;;;;;;9.41;47.17;100442.88;6125897;23;20190;-75
2022/04/17 08:20:33;;;;;;;3.50;2.13;;;;;;;9.57;47.66;100449.78;6125309;23;20203;-77
2022/04/17 08:23:00;;;;;;;3.90;2.70;;;;;;;9.41;48.44;100445.53;6100248;23;20242;-76
2022/04/17 08:25:27;;;;;;;3.93;3.50;;;;;;;9.37;47.22;100438.94;6125555;23;20195;-77
2022/04/17 08:27:55;;;;;;;3.47;2.93;;;;;;;9.47;48.39;100443.94;6125352;23;20160;-76
2022/04/17 08:30:27;;;;;;;4.93;3.13;;;;;;;9.66;47.65;100441.41;6073555;23;20172;-76
2022/04/17 08:32:54;;;;;;;3.53;2.97;;;;;;;9.53;48.09;100437.81;6124739;23;20482;-76
2022/04/17 08:35:21;;;;;;;5.90;2.80;;;;;;;9.59;45.04;100434.38;6124190;23;20199;-75
2022/04/17 08:37:49;;;;;;;4.43;3.40;;;;;;;9.50;45.65;100424.84;6124738;23;20174;-75
2022/04/17 08:40:16;;;;;;;4.03;2.73;;;;;;;9.17;46.05;100435.22;6124329;23;20239;-77
2022/04/17 08:42:44;;;;;;;3.00;2.70;;;;;;;9.45;45.92;100436.13;6125743;23;20164;-76
2022/04/17 08:45:12;;;;;;;4.33;2.70;;;;;;;9.54;44.26;100423.41;6125798;23;20263;-79
2022/04/17 08:47:40;;;;;;;3.27;2.30;;;;;;;9.16;45.09;100418.34;6125925;23;20506;-78
2022/04/17 08:50:08;;;;;;;3.83;3.53;;;;;;;9.21;45.37;100428.47;6128277;23;20191;-77
2022/04/17 08:52:37;;;;;;;2.77;2.57;;;;;;;9.70;44.19;100420.47;6099998;23;20492;-75
2022/04/17 08:55:05;;;;;;;3.83;2.50;;;;;;;10.04;43.45;100411.63;6125594;23;20168;-76
2022/04/17 08:57:31;;;;;;;3.30;3.00;;;;;;;9.81;45.84;100409.22;6125626;23;20200;-79
2022/04/17 08:59:58;;;;;;;2.87;2.53;;;;;;;10.33;46.33;100415.94;6125900;23;20170;-79
2022/04/17 09:02:25;;;;;;;3.40;2.37;;;;;;;10.39;42.24;100415.16;6126389;23;20211;-78
2022/04/17 09:04:52;;;;;;;4.63;2.60;;;;;;;10.61;42.13;100411.31;6127315;23;20218;-77
2022/04/17 09:07:19;;;;;;;2.03;1.90;;;;;;;10.72;42.50;100408.06;6125552;23;20242;-79
2022/04/17 09:09:50;;;;;;;2.70;2.40;;;;;;;10.91;39.44;100409.97;6125842;23;20173;-78
2022/04/17 09:12:25;;;;;;;2.80;2.30;;;;;;;10.91;40.49;100404.59;6125588;23;20155;-78
2022/04/17 09:14:55;;;;;;;3.87;2.27;;;;;;;11.02;39.53;100393.28;6099560;23;20159;-78
2022/04/17 09:17:30;;;;;;;3.13;2.30;;;;;;;11.03;41.49;100386.06;6100261;23;20156;-78
2022/04/17 09:19:57;;;;;;;4.20;2.40;;;;;;;10.57;41.27;100385.94;6125335;23;20189;-78
2022/04/17 09:22:23;;;;;;;2.03;1.80;;;;;;;10.90;39.49;100388.72;6124773;23;20613;-78
2022/04/17 09:24:50;;;;;;;2.87;1.70;;;;;;;11.02;38.39;100376.34;6125267;23;20255;-78
2022/04/17 09:27:17;;;;;;;2.73;1.80;;;;;;;10.82;37.78;100375.50;6124771;23;20605;-78
2022/04/17 09:29:44;;;;;;;2.60;1.60;;;;;;;10.93;39.27;100367.69;6124670;23;20187;-78
2022/04/17 09:32:15;;;;;;;3.13;1.97;;;;;;;10.76;37.61;100374.47;6125008;23;20591;-78
2022/04/17 09:34:52;;;;;;;3.07;2.10;;;;;;;10.88;37.52;100375.50;6126127;23;20167;-79
2022/04/17 09:37:27;;;;;;;2.40;1.80;;;;;;;10.96;37.08;100358.41;6125288;23;20179;-79
2022/04/17 09:40:06;;;;;;;2.83;1.77;;;;;;;10.96;38.10;100369.94;6100444;23;20230;-80
2022/04/17 09:42:32;;;;;;;2.60;2.03;;;;;;;10.90;39.03;100367.28;6125758;23;20578;-79
2022/04/17 09:45:00;;;;;;;2.10;1.80;;;;;;;11.13;37.16;100345.44;6125312;23;20186;-79
2022/04/17 09:47:28;;;;;;;2.10;1.90;;;;;;;10.97;37.26;100339.44;6125296;23;20557;-80
2022/04/17 09:49:59;;;;;;;2.30;2.07;;;;;;;10.86;37.76;100334.69;6125842;23;20180;-79
2022/04/17 09:52:35;;;;;;;2.93;2.40;;;;;;;10.97;39.22;100333.22;6099685;23;20613;-78
2022/04/17 09:55:03;;;;;;;2.50;2.30;;;;;;;11.29;37.84;100335.09;6125413;23;20162;-79
2022/04/17 09:57:32;;;;;;;3.47;2.10;;;;;;;11.40;38.13;100339.03;6125156;23;20191;-79
2022/04/17 10:00:14;;;;;;;3.47;2.60;;;;;;;10.80;39.27;100332.00;6100236;23;20148;-78
2022/04/17 10:02:43;;;;;;;3.03;2.80;;;;;;;10.49;40.24;100351.31;6125601;23;20231;-78
2022/04/17 10:05:20;;;;;;;4.23;3.20;;;;;;;10.76;38.81;100339.63;6125247;23;20183;-78
2022/04/17 10:07:48;;;;;;;2.43;2.23;;;;;;;10.82;38.39;100333.44;6125317;23;20152;-78
2022/04/17 10:10:16;;;;;;;2.83;2.53;;;;;;;10.99;38.56;100332.03;6099849;23;20175;-78
2022/04/17 10:12:46;;;;;;;3.20;2.80;;;;;;;10.73;38.99;100329.28;6125776;23;20231;-77
2022/04/17 10:15:13;;;;;;;2.60;2.40;;;;;;;10.88;38.92;100311.16;6125539;23;20177;-78
2022/04/17 10:17:44;;;;;;;5.30;3.83;;;;;;;11.35;41.91;100309.31;6124703;23;20184;-78
2022/04/17 10:20:13;;;;;;;3.07;2.37;;;;;;;11.26;39.62;100310.56;6094062;23;20262;-79
2022/04/17 10:22:43;;;;;;;3.30;2.60;;;;;;;11.26;40.01;100303.34;6094777;23;20506;-78
2022/04/17 10:25:10;;;;;;;3.70;2.53;;;;;;;11.63;37.32;100303.69;6095503;23;20184;-78
2022/04/17 10:27:54;;;;;;;2.80;2.43;;;;;;;11.35;36.91;100301.25;6095830;23;20259;-78
2022/04/17 10:30:23;;;;;;;2.57;2.30;;;;;;;11.20;36.63;100300.69;6094789;23;20153;-78
2022/04/17 10:33:11;;;;;;;3.37;2.50;;;;;;;11.40;38.36;100294.25;6094135;23;20174;-78
2022/04/17 10:35:50;;;;;;;2.93;2.57;;;;;;;11.56;37.53;100286.78;6096692;23;20153;-78
2022/04/17 10:38:30;;;;;;;2.87;2.40;;;;;;;11.28;35.97;100273.63;6096090;23;20171;-78
2022/04/17 10:41:07;;;;;;;2.93;2.23;;;;;;;11.01;36.11;100273.63;6094400;23;20151;-78
2022/04/17 10:43:57;;;;;;;2.70;2.43;;;;;;;11.01;37.38;100268.25;6094811;23;20183;-78
2022/04/17 10:46:25;;;;;;;3.37;2.23;;;;;;;11.16;38.20;100268.06;6095665;23;20172;-78
2022/04/17 10:48:55;;;;;;;3.60;2.60;;;;;;;11.35;38.59;100255.66;6096132;23;20542;-78
2022/04/17 10:51:22;;;;;;;4.67;2.40;;;;;;;11.13;38.27;100256.94;6095660;23;20226;-79
2022/04/17 10:54:03;;;;;;;4.20;2.67;;;;;;;10.97;41.02;100247.44;6096073;23;20165;-78
2022/04/17 10:56:35;;;;;;;4.53;2.63;;;;;;;11.80;39.28;100246.66;6095608;23;20161;-78
2022/04/17 10:59:06;;;;;;;3.13;2.30;;;;;;;12.25;36.27;100244.00;6097817;23;20588;-79
2022/04/17 11:01:45;;;;;;;2.80;2.50;;;;;;;12.13;35.76;100246.50;6096007;23;20621;-78
2022/04/17 11:04:21;;;;;;;3.10;2.50;;;;;;;11.89;35.16;100242.72;6098043;23;20473;-79
2022/04/17 11:06:53;;;;;;;3.07;2.77;;;;;;;11.46;36.51;100237.06;6097430;23;20230;-78
2022/04/17 11:09:21;;;;;;;2.90;2.70;;;;;;;11.70;35.25;100230.19;6096671;23;20239;-79
2022/04/17 11:11:48;;;;;;;3.40;3.00;;;;;;;11.64;37.25;100222.97;6098107;23;20247;-78
2022/04/17 11:14:23;;;;;;;3.03;2.37;;;;;;;11.15;38.62;100228.06;6097704;23;20623;-78
2022/04/17 11:16:53;;;;;;;2.60;2.40;;;;;;;11.44;36.27;100219.50;6097407;23;20149;-78
2022/04/17 11:19:24;;;;;;;5.03;2.97;;;;;;;11.93;38.17;100210.91;6098091;23;20272;-78
2022/04/17 11:21:53;;;;;;;2.60;2.40;;;;;;;12.00;35.99;100211.69;6127021;23;20160;-78
2022/04/17 11:24:21;;;;;;;4.07;2.70;;;;;;;11.45;35.41;100208.56;6126602;23;20186;-78
2022/04/17 11:26:54;;;;;;;3.10;2.40;;;;;;;11.72;37.45;100206.66;6127087;23;20222;-78
2022/04/17 11:29:40;;;;;;;2.97;2.33;;;;;;;11.37;37.47;100200.75;6126421;23;20620;-78
2022/04/17 11:32:16;;;;;;;2.73;2.40;;;;;;;11.95;36.49;100210.66;6126549;23;20223;-78
2022/04/17 11:34:53;;;;;;;3.60;2.53;;;;;;;11.49;36.42;100209.81;6126561;23;20195;-78
2022/04/17 11:37:21;;;;;;;3.67;2.47;;;;;;;12.35;35.54;100202.19;6126413;23;20152;-79
2022/04/17 11:39:49;;;;;;;2.93;2.20;;;;;;;12.44;37.70;100200.06;6126491;23;20156;-78
2022/04/17 11:42:16;;;;;;;3.23;2.57;;;;;;;12.70;36.42;100189.06;6126628;23;20510;-78
2022/04/17 11:44:48;;;;;;;2.53;2.33;;;;;;;12.51;34.45;100182.00;6126202;23;20183;-78
2022/04/17 11:47:21;;;;;;;2.40;2.20;;;;;;;13.05;33.70;100185.88;6126301;23;20211;-79
2022/04/17 11:49:48;;;;;;;2.27;2.03;;;;;;;11.87;34.44;100187.59;6126444;23;20667;-78
2022/04/17 11:52:20;;;;;;;2.33;2.10;;;;;;;11.93;35.14;100175.16;6126305;23;20160;-78